tititudorancea.com
Station Historical Data
Daily Summary for September 30, 2018 Units:  Metric    English   Both
« Previous Day
Next Day »
Daily Weekly Monthly Yearly Custom
  High: Low: Average:
Temperature: -17.8 °C 4.3 °C 8.4 °C
Dew Point: -17.8 °C 2.6 °C 4.8 °C
Humidity: Humidity % 51 % 79 %
Wind Speed: 0 km/h 0 km/h 3.2 km/h
Wind Gust: 0 km/h - -
Wind:- - SSE
Pressure: 0 hPa 1027 hPa -
Precipitation: 0 mm    
Historical Graphs
 
 
Ararat weather Find more about Weather in Ararat, AU


 



 


Tabular Data for September 30, 2018
Time Temperature Dew Point Pressure Wind Wind Speed Wind Gust Humidity Rainfall Rate (Hourly)
-17.8 °C -17.8 °C 0 hPa Calm     Humidity % 0 mm
00:04 6.9 °C 4.7 °C 1029.7 hPa Calm     86 % 0 mm
00:09 6.7 °C 4.4 °C 1029.7 hPa Calm     85 % 0 mm
00:14 6.4 °C 4.1 °C 1029.7 hPa Calm     85 % 0 mm
00:19 6.2 °C 3.8 °C 1029.7 hPa Calm     85 % 0 mm
00:24 6 °C 3.8 °C 1029.7 hPa Calm     86 % 0 mm
00:29 5.8 °C 3.7 °C 1029.7 hPa Calm     86 % 0 mm
00:34 5.7 °C 3.7 °C 1029.7 hPa Calm     87 % 0 mm
00:39 5.5 °C 3.5 °C 1029.7 hPa Calm     87 % 0 mm
00:44 5.3 °C 3.3 °C 1029.7 hPa Calm     87 % 0 mm
00:49 5.2 °C 3.3 °C 1029.7 hPa Calm     88 % 0 mm
00:54 4.9 °C 3.1 °C 1029.7 hPa Calm     88 % 0 mm
00:59 4.7 °C 2.9 °C 1029.7 hPa Calm     88 % 0 mm
01:04 4.6 °C 2.9 °C 1029.7 hPa Calm     89 % 0 mm
01:09 4.6 °C 2.9 °C 1029.7 hPa Calm     89 % 0 mm
01:14 4.4 °C 2.6 °C 1029.7 hPa Calm     88 % 0 mm
01:19 4.3 °C 2.6 °C 1029.7 hPa Calm     89 % 0 mm
01:24 4.3 °C 2.8 °C 1029.7 hPa SSW 1.6 km/h 1 km/h 90 % 0 mm
01:29 4.4 °C 3.1 °C 1029.7 hPa Calm     91 % 0 mm
01:34 4.4 °C 2.9 °C 1029.7 hPa Calm     90 % 0 mm
01:39 4.4 °C 3.1 °C 1029.7 hPa Calm     91 % 0 mm
01:44 4.5 °C 3.2 °C 1029.7 hPa Calm     91 % 0 mm
01:49 4.6 °C 3.3 °C 1029.7 hPa Calm     91 % 0 mm
01:54 4.7 °C 3.3 °C 1029.7 hPa Calm     91 % 0 mm
01:59 4.8 °C 3.6 °C 1029.7 hPa SSW 1.6 km/h 1.1 km/h 92 % 0 mm
02:04 4.9 °C 3.8 °C 1029.7 hPa Calm     92 % 0 mm
02:09 5 °C 3.8 °C 1029.7 hPa Calm     92 % 0 mm
02:14 5.1 °C 3.9 °C 1029.7 hPa Calm     92 % 0 mm
02:19 5.1 °C 3.9 °C 1029.7 hPa Calm     92 % 0 mm
02:24 5.2 °C 4 °C 1029.7 hPa Calm     92 % 0 mm
02:29 5.2 °C 4.1 °C 1029.7 hPa Calm     92 % 0 mm
02:34 5.3 °C 4.1 °C 1029.7 hPa Calm     92 % 0 mm
02:39 5.3 °C 4.1 °C 1029.7 hPa Calm     92 % 0 mm
02:44 5.3 °C 4.1 °C 1029.7 hPa Calm     92 % 0 mm
02:49 5.3 °C 4.1 °C 1029.7 hPa Calm     92 % 0 mm
02:54 5.3 °C 4.1 °C 1029.3 hPa Calm     92 % 0 mm
02:59 5.4 °C 4.2 °C 1029.3 hPa Calm     92 % 0 mm
03:04 5.4 °C 4.2 °C 1029.3 hPa Calm     92 % 0 mm
03:09 5.4 °C 4.2 °C 1029.3 hPa Calm     92 % 0 mm
03:14 5.5 °C 4.3 °C 1029.7 hPa Calm     92 % 0 mm
03:19 5.5 °C 4.3 °C 1029.7 hPa Calm     92 % 0 mm
03:24 5.6 °C 4.6 °C 1029.7 hPa SSW 3.2 km/h 0.8 km/h 93 % 0 mm
03:29 5.7 °C 4.7 °C 1029.7 hPa North 3.7 km/h   93 % 0 mm
03:34 5.8 °C 4.8 °C 1029.7 hPa North 3.7 km/h 2.1 km/h 93 % 0 mm
03:39 5.9 °C 4.7 °C 1029.3 hPa Calm     92 % 0 mm
03:44 5.9 °C 4.7 °C 1029.3 hPa Calm     92 % 0 mm
03:49 5.9 °C 4.7 °C 1029.3 hPa Calm     92 % 0 mm
03:54 5.9 °C 4.9 °C 1029.3 hPa Calm     93 % 0 mm
03:59 6 °C 4.9 °C 1029.3 hPa SSW 1.9 km/h 1 km/h 93 % 0 mm
04:04 6 °C 4.9 °C 1029.3 hPa Calm     93 % 0 mm
04:09 6 °C 4.9 °C 1029.3 hPa Calm     93 % 0 mm
04:14 6.1 °C 5 °C 1029.3 hPa Calm     93 % 0 mm
04:19 6.1 °C 5 °C 1029.3 hPa Calm     93 % 0 mm
04:24 6.1 °C 4.8 °C 1029.7 hPa Calm     92 % 0 mm
04:29 6.1 °C 4.8 °C 1029.3 hPa Calm     92 % 0 mm
04:34 6.1 °C 4.8 °C 1029.7 hPa Calm     92 % 0 mm
04:39 6.1 °C 4.8 °C 1029.7 hPa Calm     92 % 0 mm
04:44 6.1 °C 4.8 °C 1029.7 hPa Calm     92 % 0 mm
04:49 6.1 °C 4.8 °C 1029.7 hPa Calm     92 % 0 mm
04:54 6.1 °C 5.1 °C 1029.7 hPa Calm     93 % 0 mm
04:59 6.1 °C 4.9 °C 1029.7 hPa Calm     92 % 0 mm
05:04 6.2 °C 4.9 °C 1029.7 hPa North 3.2 km/h 1.1 km/h 92 % 0 mm
05:09 6.2 °C 5 °C 1029.7 hPa North 6.4 km/h 3.2 km/h 92 % 0 mm
05:14 6.2 °C 5 °C 1029.7 hPa Calm     92 % 0 mm
05:19 6.2 °C 5 °C 1029.7 hPa Calm     92 % 0 mm
05:24 6.3 °C 5.1 °C 1030 hPa SSW 7.4 km/h 5.1 km/h 92 % 0 mm
05:29 6.2 °C 5 °C 1030 hPa SSW 5.6 km/h 1.1 km/h 92 % 0 mm
05:34 6.2 °C 4.9 °C 1030 hPa Calm     92 % 0 mm
05:39 6.2 °C 4.9 °C 1030 hPa Calm     92 % 0 mm
05:44 6.2 °C 4.9 °C 1030 hPa Calm     92 % 0 mm
05:49 6.2 °C 4.9 °C 1030 hPa Calm     92 % 0 mm
05:54 6.2 °C 4.9 °C 1030 hPa Calm     92 % 0 mm
05:59 6.2 °C 4.9 °C 1030.4 hPa North 1.9 km/h 1.3 km/h 92 % 0 mm
06:04 6.2 °C 5.2 °C 1030.4 hPa Calm     93 % 0 mm
06:09 6.2 °C 5 °C 1030.4 hPa Calm     92 % 0 mm
06:14 6.2 °C 5 °C 1030.4 hPa Calm     92 % 0 mm
06:19 6.2 °C 5 °C 1030.4 hPa Calm     92 % 0 mm
06:24 6.2 °C 5.2 °C 1030.4 hPa SSW 1.9 km/h   93 % 0 mm
06:29 6.2 °C 5 °C 1030.4 hPa SSW 3.7 km/h 2.4 km/h 92 % 0 mm
06:34 6.3 °C 5.2 °C 1030.4 hPa North 1.9 km/h   93 % 0 mm
06:39 6.3 °C 5.2 °C 1030.4 hPa Calm     93 % 0 mm
06:44 6.4 °C 5.3 °C 1030.7 hPa SSW 5.6 km/h 4.7 km/h 93 % 0 mm
06:49 6.4 °C 5.4 °C 1030.7 hPa Calm     93 % 0 mm
06:54 6.5 °C 5.4 °C 1030.7 hPa North 1.9 km/h   93 % 0 mm
06:59 6.6 °C 5.6 °C 1030.7 hPa Calm     93 % 0 mm
07:04 6.7 °C 5.6 °C 1030.7 hPa Calm     93 % 0 mm
07:09 6.8 °C 5.7 °C 1030.7 hPa Calm     93 % 0 mm
07:14 6.9 °C 5.9 °C 1030.7 hPa Calm     93 % 0 mm
07:19 7.1 °C 6.1 °C 1030.7 hPa Calm     93 % 0 mm
07:24 7.3 °C 6.4 °C 1030.7 hPa Calm     94 % 0 mm
07:29 7.4 °C 6.4 °C 1030.7 hPa Calm     93 % 0 mm
07:34 7.5 °C 6.4 °C 1031 hPa SSW 3.7 km/h 0.8 km/h 93 % 0 mm
07:39 7.7 °C 6.7 °C 1031 hPa Calm     93 % 0 mm
07:44 7.9 °C 6.8 °C 1030.7 hPa Calm     93 % 0 mm
07:49 8 °C 6.8 °C 1030.7 hPa Calm     92 % 0 mm
07:54 8.2 °C 6.9 °C 1030.7 hPa North 1.6 km/h 0.2 km/h 92 % 0 mm
07:59 8.3 °C 7.1 °C 1030.7 hPa Calm     92 % 0 mm
08:04 8.5 °C 7.1 °C 1030.7 hPa SSW 1.9 km/h   91 % 0 mm
08:09 8.7 °C 7.3 °C 1031 hPa SSW 3.7 km/h 0.8 km/h 91 % 0 mm
08:14 8.9 °C 7.2 °C 1031 hPa SSW 5.6 km/h 4.2 km/h 89 % 0 mm
08:19 8.8 °C 6.6 °C 1031 hPa SSW 5.6 km/h 4.3 km/h 86 % 0 mm
08:24 9 °C 6.1 °C 1030.7 hPa SSW 9.3 km/h 0.8 km/h 82 % 0 mm
08:29 9.1 °C 5.7 °C 1030.7 hPa North 5.6 km/h 4.7 km/h 79 % 0 mm
08:34 9.2 °C 5.2 °C 1030.7 hPa SSW 5.6 km/h 1.3 km/h 76 % 0 mm
08:39 9.3 °C 4.9 °C 1031 hPa SSW 5.6 km/h 4 km/h 74 % 0 mm
08:44 9.5 °C 5.1 °C 1030.7 hPa SSW 5.6 km/h 5.6 km/h 74 % 0 mm
08:49 9.6 °C 4.6 °C 1031 hPa North 13 km/h 9.5 km/h 71 % 0 mm
08:54 9.5 °C 4.3 °C 1031 hPa SSW 9.3 km/h 4.7 km/h 70 % 0 mm
08:59 9.7 °C 4.4 °C 1030.7 hPa SSW 7.4 km/h 6.8 km/h 70 % 0 mm
09:04 9.9 °C 4.5 °C 1031 hPa SSW 8 km/h 6.6 km/h 69 % 0 mm
09:09 9.9 °C 4.4 °C 1031 hPa SSW 13 km/h 7.4 km/h 69 % 0 mm
09:14 9.9 °C 4.3 °C 1031 hPa SSW 3.7 km/h 0.2 km/h 68 % 0 mm
09:19 10 °C 4.3 °C 1030.7 hPa SSW 5.6 km/h   68 % 0 mm
09:24 10.4 °C 4.7 °C 1030.7 hPa SSW 7.4 km/h 4.2 km/h 68 % 0 mm
09:29 10.9 °C 5 °C 1031 hPa SSW 9.3 km/h 3.7 km/h 67 % 0 mm
09:34 10.9 °C 4.6 °C 1030.7 hPa SSW 5.6 km/h 3.4 km/h 65 % 0 mm
09:39 10.9 °C 4.6 °C 1030.7 hPa SSW 8 km/h 3.4 km/h 65 % 0 mm
09:44 10.9 °C 4.3 °C 1030.7 hPa South 9.3 km/h 6.4 km/h 64 % 0 mm
09:49 11.2 °C 4.7 °C 1030.7 hPa South 9.3 km/h 4.3 km/h 64 % 0 mm
09:54 11.2 °C 4.4 °C 1030.7 hPa South 11.1 km/h 6.8 km/h 63 % 0 mm
09:59 10.9 °C 4.3 °C 1030.7 hPa South 3.7 km/h   64 % 0 mm
10:04 11.1 °C 4.7 °C 1030.7 hPa South 5.6 km/h 0.8 km/h 65 % 0 mm
10:09 11.2 °C 4.6 °C 1030.7 hPa South 12.9 km/h 6.6 km/h 64 % 0 mm
10:14 10.9 °C 4.3 °C 1030.7 hPa South 11.1 km/h 8.9 km/h 64 % 0 mm
10:19 10.6 °C 4.3 °C 1030.7 hPa South 13 km/h 8.4 km/h 65 % 0 mm
10:24 10.7 °C 4.3 °C 1030.7 hPa South 7.4 km/h 6 km/h 65 % 0 mm
10:29 10.6 °C 4.3 °C 1030.7 hPa South 3.7 km/h 0.2 km/h 65 % 0 mm
10:34 10.8 °C 4.4 °C 1030.7 hPa South 3.7 km/h 1 km/h 65 % 0 mm
10:39 10.9 °C 4.4 °C 1030.7 hPa South 5.6 km/h 3.1 km/h 64 % 0 mm
10:44 11.1 °C 4.3 °C 1030.4 hPa South 3.7 km/h 1.4 km/h 63 % 0 mm
10:49 11.6 °C 4.8 °C 1030.4 hPa South 3.7 km/h 3.1 km/h 63 % 0 mm
10:54 11.9 °C 4.7 °C 1030.4 hPa South 3.2 km/h 1 km/h 61 % 0 mm
10:59 12.1 °C 4.6 °C 1030.4 hPa South 5.6 km/h 5 km/h 60 % 0 mm
11:04 12.4 °C 4.9 °C 1030.4 hPa South 5.6 km/h 5 km/h 60 % 0 mm
11:09 12.8 °C 4.5 °C 1030 hPa South 7.4 km/h 3.9 km/h 57 % 0 mm
11:14 12.8 °C 4.8 °C 1030 hPa South 3.7 km/h 2.9 km/h 58 % 0 mm
11:19 13 °C 4.7 °C 1030 hPa South 5.6 km/h 3.5 km/h 57 % 0 mm
11:24 13.1 °C 4.8 °C 1029.7 hPa South 5.6 km/h 6 km/h 57 % 0 mm
11:29 13.1 °C 4.5 °C 1029.7 hPa South 7.4 km/h 7.7 km/h 56 % 0 mm
11:34 12.9 °C 4.3 °C 1029.7 hPa South 7.4 km/h 7.6 km/h 56 % 0 mm
11:39 12.8 °C 4.9 °C 1029.3 hPa South 11.3 km/h 5.8 km/h 59 % 0 mm
11:44 12.9 °C 5.1 °C 1029.3 hPa East 18.5 km/h 6.9 km/h 59 % 0 mm
11:49 12.9 °C 5.1 °C 1029.3 hPa ENE 4.8 km/h 4.3 km/h 59 % 0 mm
11:54 13.2 °C 5.4 °C 1029.3 hPa ENE 16.7 km/h 5.5 km/h 59 % 0 mm
11:59 13.5 °C 4.6 °C 1029.3 hPa ENE 9.3 km/h 6.6 km/h 55 % 0 mm
12:04 13.1 °C 4.8 °C 1029 hPa ENE 9.3 km/h 6.6 km/h 57 % 0 mm
12:09 13.6 °C 5.2 °C 1029 hPa ENE 5.6 km/h 5.1 km/h 57 % 0 mm
12:14 14.1 °C 5.4 °C 1029 hPa ENE 5.6 km/h 3.1 km/h 56 % 0 mm
12:19 14.5 °C 5.8 °C 1029 hPa ENE 6.4 km/h 5 km/h 56 % 0 mm
12:24 14.5 °C 5.6 °C 1029 hPa ENE 9.7 km/h 5.6 km/h 55 % 0 mm
12:29 14.2 °C 5.3 °C 1029 hPa ENE 5.6 km/h 2.1 km/h 55 % 0 mm
12:34 14.8 °C 5.8 °C 1028.7 hPa ENE 5.6 km/h 2.9 km/h 55 % 0 mm
12:39 15.3 °C 5.8 °C 1028.7 hPa ENE 3.7 km/h 2.1 km/h 53 % 0 mm
12:44 15.6 °C 5.4 °C 1028.7 hPa ENE 8 km/h 3.9 km/h 51 % 0 mm
12:49 15.3 °C 5.7 °C 1028.3 hPa ENE 7.4 km/h 6.6 km/h 53 % 0 mm
12:54 15.4 °C 5.9 °C 1028.7 hPa ENE 9.3 km/h 4.3 km/h 53 % 0 mm
12:59 15.4 °C 5.6 °C 1028.7 hPa ENE 5.6 km/h 5.3 km/h 52 % 0 mm
13:04 15 °C 5.2 °C 1028.3 hPa ENE 5.6 km/h 2.1 km/h 52 % 0 mm
13:09 15 °C 5.5 °C 1028.3 hPa ENE 4.8 km/h 2.9 km/h 53 % 0 mm
13:14 15.2 °C 5.7 °C 1028.3 hPa ENE 5.6 km/h 2.1 km/h 53 % 0 mm
13:19 15.7 °C 6.2 °C 1028 hPa ENE 5.6 km/h 4.5 km/h 53 % 0 mm
13:24 15.9 °C 6.1 °C 1028 hPa ENE 5.6 km/h 3.4 km/h 52 % 0 mm
13:26 16 °C 6.2 °C 1028 hPa ENE 9.7 km/h 5 km/h 52 % 0 mm
18:39 13.2 °C 6.3 °C 1027 hPa ESE 1.6 km/h   63 % 0 mm
18:44 12.9 °C 6.3 °C 1027 hPa Calm     64 % 0 mm
18:49 12.7 °C 6.3 °C 1027 hPa Calm     65 % 0 mm
18:54 12.3 °C 6.1 °C 1027 hPa ESE 1.9 km/h 0.3 km/h 66 % 0 mm
18:59 11.9 °C 6.2 °C 1027 hPa ESE 3.7 km/h 2.7 km/h 68 % 0 mm
19:04 11.6 °C 5.9 °C 1027 hPa ESE 8 km/h 1.4 km/h 68 % 0 mm
19:09 11.4 °C 5.9 °C 1027 hPa ESE 3.7 km/h 0.2 km/h 69 % 0 mm
19:14 11.2 °C 5.9 °C 1027 hPa Calm     70 % 0 mm
19:19 10.9 °C 5.6 °C 1027.3 hPa Calm     70 % 0 mm
19:24 10.7 °C 5.8 °C 1027.3 hPa Calm     72 % 0 mm
19:29 10.6 °C 5.7 °C 1027.3 hPa ESE 3.7 km/h 2.3 km/h 72 % 0 mm
19:34 10.4 °C 5.6 °C 1027.3 hPa Calm     72 % 0 mm
19:39 10.3 °C 5.7 °C 1027.3 hPa Calm     73 % 0 mm
19:44 10.2 °C 5.6 °C 1027.3 hPa ESE 3.2 km/h 1.9 km/h 73 % 0 mm
19:49 10 °C 5.6 °C 1027.3 hPa ESE 6.4 km/h 4 km/h 74 % 0 mm
19:54 9.9 °C 5.5 °C 1027.7 hPa ESE 5.6 km/h 4 km/h 74 % 0 mm
19:59 9.9 °C 5.7 °C 1027.7 hPa ESE 5.6 km/h 1.9 km/h 75 % 0 mm
20:04 9.9 °C 5.7 °C 1028 hPa ESE 5.6 km/h 4.5 km/h 75 % 0 mm
20:09 9.9 °C 5.7 °C 1028 hPa ESE 9.3 km/h 8.9 km/h 75 % 0 mm
20:14 9.9 °C 5.7 °C 1028 hPa ESE 13 km/h 8.7 km/h 75 % 0 mm
20:19 9.9 °C 5.7 °C 1028 hPa ESE 9.3 km/h 7.6 km/h 75 % 0 mm
20:24 9.9 °C 5.7 °C 1028 hPa ESE 9.3 km/h 7.4 km/h 75 % 0 mm
20:29 9.9 °C 5.7 °C 1028 hPa ESE 6.4 km/h 3.1 km/h 75 % 0 mm
20:34 9.9 °C 5.7 °C 1028 hPa ESE 3.2 km/h 2.4 km/h 75 % 0 mm
20:39 9.8 °C 5.6 °C 1028 hPa ESE 3.7 km/h 0.2 km/h 75 % 0 mm
20:44 9.7 °C 5.5 °C 1028 hPa ESE 5.6 km/h 1.1 km/h 75 % 0 mm
20:49 9.6 °C 5.6 °C 1028 hPa ESE 7.4 km/h 3.1 km/h 76 % 0 mm
20:54 9.6 °C 5.6 °C 1028 hPa ESE 3.7 km/h 1.9 km/h 76 % 0 mm
20:59 9.5 °C 5.5 °C 1028 hPa ESE 1.9 km/h 1.3 km/h 76 % 0 mm
21:04 9.4 °C 5.4 °C 1028 hPa ESE 5.6 km/h 2.6 km/h 76 % 0 mm
21:09 9.4 °C 5.6 °C 1028 hPa ESE 9.3 km/h 6.3 km/h 77 % 0 mm
21:14 9.4 °C 5.6 °C 1028 hPa ESE 7.4 km/h 4.7 km/h 77 % 0 mm
21:19 9.3 °C 5.5 °C 1028 hPa ESE 1.9 km/h   77 % 0 mm
21:24 9.3 °C 5.4 °C 1028 hPa Calm     77 % 0 mm
21:29 9.1 °C 5.3 °C 1028 hPa ESE 3.7 km/h 2.1 km/h 77 % 0 mm
21:34 8.9 °C 5.3 °C 1027.7 hPa ESE 3.2 km/h 1.6 km/h 78 % 0 mm
21:39 8.7 °C 5.1 °C 1027.7 hPa ESE 5.6 km/h 5.1 km/h 78 % 0 mm
21:44 8.6 °C 5.2 °C 1028 hPa ESE 7.4 km/h 3.9 km/h 79 % 0 mm
21:49 8.5 °C 5.2 °C 1028 hPa ESE 3.7 km/h   80 % 0 mm
21:54 8.4 °C 5.2 °C 1028 hPa ESE 1.6 km/h 0.6 km/h 80 % 0 mm
21:59 8.2 °C 5 °C 1028 hPa ESE 3.2 km/h 0.8 km/h 80 % 0 mm
22:04 8.1 °C 5.1 °C 1028 hPa ESE 3.7 km/h 1.6 km/h 81 % 0 mm
22:09 8.1 °C 5.1 °C 1028 hPa ESE 3.7 km/h 1.9 km/h 81 % 0 mm
22:14 8 °C 4.9 °C 1028 hPa Calm     81 % 0 mm
22:19 7.8 °C 4.9 °C 1027.7 hPa Calm     82 % 0 mm
22:24 7.7 °C 4.8 °C 1027.7 hPa Calm     82 % 0 mm
22:29 7.5 °C 4.6 °C 1027.3 hPa Calm     82 % 0 mm
22:34 7.3 °C 4.4 °C 1027.3 hPa Calm     82 % 0 mm
22:39 7.1 °C 4.4 °C 1027.3 hPa Calm     83 % 0 mm
22:44 6.9 °C 4.4 °C 1027.3 hPa Calm     84 % 0 mm
22:49 6.8 °C 4.3 °C 1027.3 hPa Calm     84 % 0 mm
22:54 6.6 °C 4.1 °C 1027 hPa Calm     84 % 0 mm
22:59 6.4 °C 4.1 °C 1027 hPa ESE 3.7 km/h   85 % 0 mm
23:04 6.3 °C 4 °C 1027 hPa Calm     85 % 0 mm
23:09 6.2 °C 4 °C 1027 hPa Calm     86 % 0 mm
23:14 6.1 °C 3.9 °C 1027 hPa Calm     86 % 0 mm
23:19 5.9 °C 3.9 °C 1027 hPa Calm     87 % 0 mm
23:24 5.8 °C 3.8 °C 1027 hPa Calm     87 % 0 mm
23:29 5.7 °C 3.7 °C 1027 hPa Calm     87 % 0 mm
23:34 5.6 °C 3.6 °C 1027 hPa Calm     87 % 0 mm
23:39 5.4 °C 3.6 °C 1027 hPa Calm     88 % 0 mm
23:44 5.4 °C 3.6 °C 1027 hPa ESE 3.7 km/h 0.8 km/h 88 % 0 mm
23:49 5.3 °C 3.5 °C 1027 hPa Calm     88 % 0 mm
23:54 5.2 °C 3.3 °C 1027 hPa Calm     88 % 0 mm
23:59 5.1 °C 3.4 °C 1027 hPa Calm     89 % 0 mm
Ararat Weather
Compliments of Weather Underground - 2 mb
Click here to send mail.


ABOUT

Live weather data from Ararat, Victoria, Australia, 3377
Data uploaded from Cumulus every 5 minutes to Weather Underground.
This site then downloads the raw data for formatting and display.
Metric and imperial data can be displayed. Graphs and historical data available.
Includes Sun and Moon times and rain image live from BOM.

Check out Ararat Weather on Facebook, Twitter and Google +

Help support ongoing costs by checking out the ads





Follow @AraratWeather